Time;durP1;ratioP1;P1;durP2;ratioP2;P2;SDS_P1;SDS_P2;PMS_P1;PMS_P2;Temp;Humidity;BMP_temperature;BMP_pressure;BME280_temperature;BME280_humidity;BME280_pressure;Samples;Min_cycle;Max_cycle;Signal;HPM_P1;HPM_P2
2022/03/18 00:02:25;;;;;;;10.88;4.45;;;;;;;;;;5039195;28;88911;-75
2022/03/18 00:04:52;;;;;;;15.15;5.68;;;;;;;;;;5039253;28;89280;-75
2022/03/18 00:07:20;;;;;;;8.20;4.97;;;;;;;;;;5041055;27;87887;-74
2022/03/18 00:09:50;;;;;;;9.02;5.45;;;;;;;;;;5043319;28;89091;-76
2022/03/18 00:12:16;;;;;;;16.63;4.97;;;;;;;;;;5045473;28;88628;-74
2022/03/18 00:14:43;;;;;;;12.30;6.30;;;;;;;;;;5042034;28;88868;-76
2022/03/18 00:17:10;;;;;;;7.50;5.28;;;;;;;;;;5042144;28;89848;-77
2022/03/18 00:19:38;;;;;;;10.98;5.18;;;;;;;;;;5042608;28;88320;-75
2022/03/18 00:22:05;;;;;;;11.55;4.97;;;;;;;;;;5041335;28;90551;-76
2022/03/18 00:24:32;;;;;;;11.95;5.75;;;;;;;;;;5042643;28;88874;-76
2022/03/18 00:26:59;;;;;;;10.20;5.78;;;;;;;;;;5042090;28;88824;-76
2022/03/18 00:29:26;;;;;;;16.90;5.97;;;;;;;;;;5041933;28;89880;-76
2022/03/18 00:31:53;;;;;;;15.57;7.90;;;;;;;;;;5040933;28;90136;-76
2022/03/18 00:34:20;;;;;;;14.00;6.93;;;;;;;;;;5044236;28;87282;-75
2022/03/18 00:36:46;;;;;;;18.88;8.88;;;;;;;;;;5042297;28;88497;-76
2022/03/18 00:39:12;;;;;;;22.95;9.68;;;;;;;;;;5042484;28;87804;-74
2022/03/18 00:41:39;;;;;;;21.42;9.38;;;;;;;;;;5041226;28;89087;-74
2022/03/18 00:44:05;;;;;;;16.00;9.07;;;;;;;;;;5041855;28;89731;-76
2022/03/18 00:46:31;;;;;;;13.68;7.18;;;;;;;;;;5042034;28;88286;-76
2022/03/18 00:54:28;;;;;;;16.00;7.43;;;;;;;;;;5044769;28;88305;-77
2022/03/18 00:56:54;;;;;;;18.55;7.97;;;;;;;;;;5041748;28;89419;-76
2022/03/18 00:59:21;;;;;;;12.75;7.70;;;;;;;;;;5042465;28;87776;-76
2022/03/18 01:01:52;;;;;;;12.40;6.82;;;;;;;;;;5041010;28;88625;-76
2022/03/18 01:04:19;;;;;;;12.35;6.93;;;;;;;;;;5041704;27;88802;-76
2022/03/18 01:06:46;;;;;;;10.73;6.78;;;;;;;;;;5040504;28;88881;-76
2022/03/18 01:09:12;;;;;;;19.13;6.60;;;;;;;;;;5040327;28;92192;-76
2022/03/18 01:11:39;;;;;;;14.50;6.05;;;;;;;;;;5041604;28;89504;-77
2022/03/18 01:14:05;;;;;;;11.05;6.18;;;;;;;;;;5042585;28;88076;-77
2022/03/18 01:16:32;;;;;;;9.25;5.05;;;;;;;;;;5046523;28;90572;-76
2022/03/18 01:18:58;;;;;;;12.85;5.20;;;;;;;;;;5042300;27;88013;-76
2022/03/18 01:21:24;;;;;;;12.80;4.65;;;;;;;;;;5041005;28;89529;-76
2022/03/18 01:23:51;;;;;;;11.00;4.40;;;;;;;;;;5041966;28;88496;-75
2022/03/18 01:26:18;;;;;;;9.85;5.05;;;;;;;;;;5039978;28;91145;-75
2022/03/18 01:28:44;;;;;;;11.93;4.30;;;;;;;;;;5041340;28;88964;-75
2022/03/18 01:31:10;;;;;;;10.80;4.28;;;;;;;;;;5040745;28;90162;-75
2022/03/18 01:33:37;;;;;;;12.93;4.63;;;;;;;;;;5041334;28;88012;-75
2022/03/18 01:36:04;;;;;;;11.77;4.50;;;;;;;;;;5040753;28;90088;-76
2022/03/18 01:38:30;;;;;;;8.43;4.07;;;;;;;;;;5044005;28;89042;-75
2022/03/18 01:40:57;;;;;;;8.95;4.25;;;;;;;;;;5041205;28;88854;-76
2022/03/18 01:43:23;;;;;;;6.40;3.80;;;;;;;;;;5040858;28;89215;-75
2022/03/18 01:45:51;;;;;;;10.70;4.30;;;;;;;;;;5041109;28;87832;-75
2022/03/18 01:48:18;;;;;;;9.18;4.50;;;;;;;;;;5041457;28;88454;-76
2022/03/18 01:50:45;;;;;;;11.93;4.00;;;;;;;;;;5040725;28;89318;-75
2022/03/18 01:53:11;;;;;;;6.30;3.78;;;;;;;;;;5039919;28;92291;-76
2022/03/18 01:55:38;;;;;;;9.30;3.88;;;;;;;;;;5040494;28;88652;-75
2022/03/18 01:58:04;;;;;;;14.75;4.25;;;;;;;;;;5041156;28;88657;-76
2022/03/18 02:00:31;;;;;;;13.65;3.83;;;;;;;;;;5044035;28;87873;-75
2022/03/18 02:02:57;;;;;;;8.68;3.88;;;;;;;;;;5040348;27;90242;-76
2022/03/18 02:05:24;;;;;;;8.90;3.97;;;;;;;;;;5039486;28;89236;-76
2022/03/18 02:07:51;;;;;;;9.90;4.40;;;;;;;;;;5040552;28;89647;-75
2022/03/18 02:10:17;;;;;;;9.45;3.58;;;;;;;;;;5040792;28;89271;-76
2022/03/18 02:12:43;;;;;;;8.00;4.55;;;;;;;;;;5041159;28;87281;-75
2022/03/18 02:15:15;;;;;;;7.50;3.97;;;;;;;;;;5040841;28;88423;-75
2022/03/18 02:17:41;;;;;;;8.18;4.30;;;;;;;;;;5037248;28;89314;-75
2022/03/18 02:20:08;;;;;;;7.70;4.20;;;;;;;;;;5020119;28;88504;-75
2022/03/18 02:22:38;;;;;;;11.52;4.55;;;;;;;;;;5023466;28;89619;-76
2022/03/18 02:25:04;;;;;;;8.65;4.28;;;;;;;;;;5020523;28;87745;-75
2022/03/18 02:27:31;;;;;;;7.57;4.03;;;;;;;;;;5020202;28;88219;-76
2022/03/18 02:29:57;;;;;;;10.57;4.25;;;;;;;;;;5018541;28;90042;-77
2022/03/18 02:32:23;;;;;;;5.80;3.80;;;;;;;;;;5019835;28;88021;-77
2022/03/18 02:34:50;;;;;;;12.90;4.38;;;;;;;;;;5020484;28;88233;-76
2022/03/18 02:37:16;;;;;;;7.13;4.03;;;;;;;;;;5020641;28;88012;-75
2022/03/18 02:39:43;;;;;;;7.55;3.78;;;;;;;;;;5019976;28;88101;-75
2022/03/18 02:42:09;;;;;;;9.98;4.47;;;;;;;;;;5022616;28;88163;-77
2022/03/18 02:44:35;;;;;;;11.45;4.13;;;;;;;;;;5019654;28;88453;-76
2022/03/18 02:47:02;;;;;;;11.25;4.88;;;;;;;;;;5019695;28;89449;-76
2022/03/18 02:49:28;;;;;;;14.30;4.85;;;;;;;;;;5020087;28;88673;-75
2022/03/18 02:51:56;;;;;;;8.95;4.10;;;;;;;;;;5019840;28;88187;-75
2022/03/18 02:54:22;;;;;;;14.50;5.10;;;;;;;;;;5018633;28;90031;-76
2022/03/18 02:56:49;;;;;;;11.00;4.35;;;;;;;;;;5020019;28;89217;-75
2022/03/18 02:59:15;;;;;;;8.15;4.95;;;;;;;;;;5019872;28;88212;-76
2022/03/18 03:01:42;;;;;;;14.38;4.70;;;;;;;;;;5019962;28;89935;-76
2022/03/18 03:04:09;;;;;;;9.88;4.22;;;;;;;;;;5022758;28;88867;-75
2022/03/18 03:09:22;;;;;;;12.00;4.50;;;;;;;;;;5019320;28;89875;-75
2022/03/18 03:11:48;;;;;;;12.38;4.88;;;;;;;;;;4977387;28;88387;-76
2022/03/18 03:14:15;;;;;;;10.52;4.53;;;;;;;;;;4977833;28;88729;-76
2022/03/18 03:16:42;;;;;;;7.28;4.40;;;;;;;;;;4978019;28;89054;-76
2022/03/18 03:19:08;;;;;;;8.70;3.63;;;;;;;;;;4978050;28;88214;-76
2022/03/18 03:21:35;;;;;;;7.57;4.15;;;;;;;;;;4978167;28;89190;-75
2022/03/18 03:24:01;;;;;;;15.65;4.72;;;;;;;;;;4978123;28;89447;-77
2022/03/18 03:26:28;;;;;;;10.48;3.90;;;;;;;;;;4986158;28;87427;-76
2022/03/18 03:28:54;;;;;;;11.80;4.00;;;;;;;;;;4978288;28;88652;-75
2022/03/18 03:31:21;;;;;;;9.70;4.05;;;;;;;;;;4978192;28;88072;-75
2022/03/18 03:33:47;;;;;;;11.85;4.88;;;;;;;;;;4977548;28;88883;-75
2022/03/18 03:36:14;;;;;;;8.63;4.57;;;;;;;;;;4977767;28;89281;-74
2022/03/18 03:38:41;;;;;;;12.20;5.07;;;;;;;;;;4977828;28;88392;-76
2022/03/18 03:41:07;;;;;;;9.85;4.90;;;;;;;;;;4977388;28;89615;-76
2022/03/18 03:43:34;;;;;;;15.32;5.47;;;;;;;;;;4980491;28;89638;-76
2022/03/18 03:46:00;;;;;;;8.90;4.57;;;;;;;;;;4981162;28;87868;-76
2022/03/18 03:48:27;;;;;;;10.88;5.30;;;;;;;;;;4984190;28;88858;-75
2022/03/18 03:50:53;;;;;;;11.40;4.65;;;;;;;;;;4981550;28;89291;-76
2022/03/18 03:53:19;;;;;;;12.32;5.43;;;;;;;;;;4980523;28;88804;-76
2022/03/18 03:55:46;;;;;;;11.48;5.00;;;;;;;;;;4981219;28;89033;-76
2022/03/18 03:58:12;;;;;;;11.13;5.28;;;;;;;;;;4980824;28;88747;-76
2022/03/18 04:00:40;;;;;;;11.40;5.55;;;;;;;;;;4981339;28;88137;-75
2022/03/18 04:03:07;;;;;;;10.43;5.07;;;;;;;;;;5012954;28;89041;-76
2022/03/18 04:05:34;;;;;;;10.85;5.15;;;;;;;;;;5022621;28;88117;-75
2022/03/18 04:08:01;;;;;;;11.05;5.63;;;;;;;;;;5022277;28;89243;-75
2022/03/18 04:10:27;;;;;;;10.38;5.50;;;;;;;;;;5024187;28;91298;-75
2022/03/18 04:12:54;;;;;;;10.73;5.47;;;;;;;;;;5022687;28;89137;-77
2022/03/18 04:15:21;;;;;;;8.20;5.72;;;;;;;;;;5022914;28;88837;-75
2022/03/18 04:17:48;;;;;;;10.25;5.80;;;;;;;;;;5022437;28;88152;-75
2022/03/18 04:20:16;;;;;;;8.23;5.07;;;;;;;;;;5022595;28;88627;-75
2022/03/18 04:22:43;;;;;;;10.43;5.20;;;;;;;;;;5021356;28;90019;-75
2022/03/18 04:25:09;;;;;;;11.00;6.05;;;;;;;;;;5022686;28;88660;-75
2022/03/18 04:27:36;;;;;;;8.57;5.70;;;;;;;;;;5021177;28;89950;-75
2022/03/18 04:30:05;;;;;;;7.22;5.90;;;;;;;;;;5022172;28;89424;-75
2022/03/18 04:32:32;;;;;;;12.35;6.45;;;;;;;;;;5020265;28;88001;-74
2022/03/18 04:34:58;;;;;;;11.10;5.97;;;;;;;;;;5022126;28;88676;-74
2022/03/18 04:37:25;;;;;;;8.52;5.82;;;;;;;;;;5021845;28;87929;-75
2022/03/18 04:39:51;;;;;;;8.20;5.30;;;;;;;;;;5022421;28;88325;-76
2022/03/18 04:42:18;;;;;;;13.52;5.70;;;;;;;;;;5021623;28;89154;-76
2022/03/18 04:44:44;;;;;;;21.27;5.95;;;;;;;;;;5021709;28;89799;-75
2022/03/18 04:47:11;;;;;;;16.33;6.00;;;;;;;;;;5021545;28;88859;-75
2022/03/18 04:49:38;;;;;;;10.50;5.85;;;;;;;;;;5020235;28;90173;-76
2022/03/18 04:52:05;;;;;;;13.43;6.03;;;;;;;;;;5024187;28;88603;-75
2022/03/18 04:54:31;;;;;;;10.07;6.05;;;;;;;;;;5021869;28;88629;-75
2022/03/18 04:59:45;;;;;;;9.70;5.82;;;;;;;;;;5021885;28;88628;-76
2022/03/18 05:02:14;;;;;;;12.43;5.90;;;;;;;;;;5021683;28;89078;-76
2022/03/18 05:04:44;;;;;;;10.07;5.95;;;;;;;;;;5021945;28;87755;-75
2022/03/18 05:07:11;;;;;;;13.40;6.32;;;;;;;;;;5021977;28;87818;-75
2022/03/18 05:09:39;;;;;;;13.35;5.57;;;;;;;;;;5021611;28;89340;-77
2022/03/18 05:12:06;;;;;;;6.72;5.75;;;;;;;;;;5021185;28;88680;-75
2022/03/18 05:14:35;;;;;;;11.85;5.63;;;;;;;;;;5024526;28;88859;-76
2022/03/18 05:17:02;;;;;;;11.45;6.03;;;;;;;;;;5021424;28;87876;-76
2022/03/18 05:19:30;;;;;;;12.48;6.05;;;;;;;;;;5021580;28;88243;-75
2022/03/18 05:21:57;;;;;;;12.18;5.63;;;;;;;;;;5021415;28;89211;-76
2022/03/18 05:24:26;;;;;;;9.52;5.70;;;;;;;;;;5021375;28;88849;-75
2022/03/18 05:26:56;;;;;;;9.40;6.28;;;;;;;;;;5021192;28;88763;-76
2022/03/18 05:29:23;;;;;;;14.68;5.63;;;;;;;;;;5021360;28;87261;-76
2022/03/18 05:31:49;;;;;;;10.68;6.32;;;;;;;;;;5021259;28;88296;-76
2022/03/18 05:34:16;;;;;;;11.48;5.97;;;;;;;;;;5022752;28;89009;-77
2022/03/18 05:36:43;;;;;;;8.80;5.60;;;;;;;;;;5024288;28;89841;-75
2022/03/18 05:39:10;;;;;;;8.82;5.82;;;;;;;;;;5020932;28;89256;-75
2022/03/18 05:41:37;;;;;;;11.43;5.78;;;;;;;;;;5020888;28;89753;-75
2022/03/18 05:44:04;;;;;;;10.30;5.50;;;;;;;;;;5020172;28;87881;-75
2022/03/18 05:46:37;;;;;;;10.95;5.88;;;;;;;;;;5021132;28;88346;-74
2022/03/18 05:49:04;;;;;;;12.68;5.65;;;;;;;;;;5020436;28;90656;-75
2022/03/18 05:51:31;;;;;;;9.73;5.65;;;;;;;;;;5020340;28;89710;-75
2022/03/18 05:53:57;;;;;;;16.38;5.90;;;;;;;;;;5021211;28;89092;-75
2022/03/18 05:59:10;;;;;;;8.07;5.18;;;;;;;;;;5023707;28;88168;-77
2022/03/18 06:01:37;;;;;;;10.82;6.10;;;;;;;;;;5019400;28;92415;-74
2022/03/18 06:04:05;;;;;;;11.00;5.85;;;;;;;;;;5019721;28;88437;-75
2022/03/18 06:06:31;;;;;;;6.22;5.22;;;;;;;;;;5020609;28;88130;-76
2022/03/18 06:11:48;;;;;;;6.78;5.05;;;;;;;;;;5020721;28;87674;-75
2022/03/18 06:14:19;;;;;;;10.50;6.28;;;;;;;;;;5019549;28;89213;-76
2022/03/18 06:16:49;;;;;;;14.50;6.18;;;;;;;;;;5020402;28;88884;-76
2022/03/18 06:19:16;;;;;;;10.82;6.18;;;;;;;;;;5020748;28;88072;-76
2022/03/18 06:21:43;;;;;;;10.15;5.88;;;;;;;;;;5023127;28;90018;-76
2022/03/18 06:24:10;;;;;;;11.15;5.78;;;;;;;;;;5020464;28;88253;-76
2022/03/18 06:26:36;;;;;;;11.10;5.88;;;;;;;;;;5019547;28;90105;-75
2022/03/18 06:29:03;;;;;;;9.02;5.38;;;;;;;;;;5020006;28;90058;-76
2022/03/18 06:31:29;;;;;;;8.45;5.70;;;;;;;;;;5020723;28;87730;-75
2022/03/18 06:33:56;;;;;;;14.25;6.32;;;;;;;;;;5019880;28;88941;-76
2022/03/18 06:36:22;;;;;;;14.80;6.40;;;;;;;;;;5021441;28;89135;-76
2022/03/18 06:38:48;;;;;;;16.80;6.50;;;;;;;;;;5020549;28;88525;-76
2022/03/18 06:41:16;;;;;;;17.60;6.50;;;;;;;;;;5020089;28;89846;-75
2022/03/18 06:43:43;;;;;;;10.93;6.68;;;;;;;;;;5023118;28;88496;-76
2022/03/18 06:46:11;;;;;;;9.48;5.95;;;;;;;;;;5020243;28;88191;-75
2022/03/18 06:48:37;;;;;;;11.93;6.30;;;;;;;;;;5019795;28;89499;-75
2022/03/18 06:51:04;;;;;;;9.68;5.72;;;;;;;;;;5019644;28;88553;-76
2022/03/18 06:53:30;;;;;;;13.65;5.82;;;;;;;;;;5019872;28;90126;-75
2022/03/18 06:55:57;;;;;;;15.15;5.88;;;;;;;;;;5020040;28;88672;-76
2022/03/18 06:58:23;;;;;;;13.80;6.97;;;;;;;;;;5019827;28;88011;-76
2022/03/18 07:00:49;;;;;;;10.68;5.82;;;;;;;;;;5019703;28;89525;-75
2022/03/18 07:03:16;;;;;;;15.32;6.43;;;;;;;;;;5022347;28;89128;-75
2022/03/18 07:05:48;;;;;;;16.88;6.75;;;;;;;;;;5019630;28;89928;-76
2022/03/18 07:08:14;;;;;;;15.52;7.53;;;;;;;;;;5020165;28;88366;-75
2022/03/18 07:10:41;;;;;;;15.05;7.10;;;;;;;;;;5019879;28;88170;-75
2022/03/18 07:13:08;;;;;;;12.60;6.45;;;;;;;;;;5019581;28;89704;-73
2022/03/18 07:15:35;;;;;;;13.75;6.55;;;;;;;;;;5019395;28;89871;-73
2022/03/18 07:18:03;;;;;;;14.38;7.35;;;;;;;;;;5022962;28;87918;-74
2022/03/18 07:20:30;;;;;;;14.73;7.95;;;;;;;;;;5022110;28;89426;-75
2022/03/18 07:23:04;;;;;;;14.98;7.97;;;;;;;;;;5023297;28;88430;-72
2022/03/18 07:25:30;;;;;;;14.70;8.15;;;;;;;;;;5026079;28;88224;-75
2022/03/18 07:27:57;;;;;;;18.92;8.55;;;;;;;;;;5005136;28;90567;-76
2022/03/18 07:30:23;;;;;;;27.15;10.00;;;;;;;;;;5022645;28;88836;-74
2022/03/18 07:32:50;;;;;;;18.70;9.35;;;;;;;;;;5022402;28;89979;-74
2022/03/18 07:35:17;;;;;;;22.70;9.52;;;;;;;;;;5022900;28;89472;-73
2022/03/18 07:37:43;;;;;;;22.67;9.63;;;;;;;;;;5023123;28;89746;-70
2022/03/18 07:40:11;;;;;;;14.00;8.82;;;;;;;;;;5022345;28;89002;-71
2022/03/18 07:42:41;;;;;;;22.42;8.82;;;;;;;;;;5022432;28;88929;-71
2022/03/18 07:45:11;;;;;;;19.30;9.10;;;;;;;;;;5022748;28;88160;-70
2022/03/18 07:47:37;;;;;;;17.42;8.20;;;;;;;;;;5025875;28;89473;-70
2022/03/18 07:50:07;;;;;;;23.33;9.07;;;;;;;;;;5022979;28;87942;-70
2022/03/18 07:52:35;;;;;;;;;;;;;;;;;;5022130;28;89329;-69
2022/03/18 07:55:02;;;;;;;18.25;8.48;;;;;;;;;;5018653;28;122568;-70
2022/03/18 07:57:28;;;;;;;25.42;9.38;;;;;;;;;;5019826;28;91579;-71
2022/03/18 07:59:55;;;;;;;17.85;9.30;;;;;;;;;;5019830;28;92253;-71
2022/03/18 08:02:21;;;;;;;22.15;10.27;;;;;;;;;;5019400;28;93024;-71
2022/03/18 08:04:49;;;;;;;18.75;9.48;;;;;;;;;;5017012;28;94664;-71
2022/03/18 08:07:15;;;;;;;17.50;9.82;;;;;;;;;;5019621;28;95958;-71
2022/03/18 08:09:41;;;;;;;17.23;9.52;;;;;;;;;;5022455;28;93579;-71
2022/03/18 08:12:08;;;;;;;18.52;10.05;;;;;;;;;;5019072;28;92789;-72
2022/03/18 08:14:34;;;;;;;18.08;9.70;;;;;;;;;;5018200;28;93794;-71
2022/03/18 08:17:01;;;;;;;15.07;9.45;;;;;;;;;;5017952;28;92420;-71
2022/03/18 08:19:34;;;;;;;13.45;9.70;;;;;;;;;;5019321;28;93211;-71
2022/03/18 08:22:01;;;;;;;15.23;8.75;;;;;;;;;;5019575;28;92272;-71
2022/03/18 08:24:28;;;;;;;16.42;9.48;;;;;;;;;;5018549;28;92316;-70
2022/03/18 08:26:54;;;;;;;21.17;8.70;;;;;;;;;;5018447;28;93982;-73
2022/03/18 08:29:21;;;;;;;19.33;9.40;;;;;;;;;;5016889;28;95055;-73
2022/03/18 08:31:47;;;;;;;18.40;8.70;;;;;;;;;;5022202;28;92272;-73
2022/03/18 08:34:15;;;;;;;15.02;7.95;;;;;;;;;;5018537;28;94455;-72
2022/03/18 08:36:41;;;;;;;16.80;8.55;;;;;;;;;;5018574;28;93317;-72
2022/03/18 08:39:07;;;;;;;15.38;8.55;;;;;;;;;;5018224;28;92588;-74
2022/03/18 08:41:34;;;;;;;36.35;9.15;;;;;;;;;;5018558;28;92689;-73
2022/03/18 08:44:00;;;;;;;36.88;8.15;;;;;;;;;;5018420;28;93002;-73
2022/03/18 08:46:27;;;;;;;22.27;8.07;;;;;;;;;;5019176;28;93721;-72
2022/03/18 08:48:54;;;;;;;18.30;7.85;;;;;;;;;;5018625;28;93535;-72
2022/03/18 08:51:20;;;;;;;18.25;8.27;;;;;;;;;;5018649;28;92239;-72
2022/03/18 08:53:47;;;;;;;23.40;8.13;;;;;;;;;;5020059;28;95336;-72
2022/03/18 08:56:13;;;;;;;11.70;7.28;;;;;;;;;;5018093;28;92282;-73
2022/03/18 08:58:40;;;;;;;13.93;7.55;;;;;;;;;;5018771;28;93513;-72
2022/03/18 09:01:10;;;;;;;11.70;7.50;;;;;;;;;;5018393;28;93494;-72
2022/03/18 09:03:37;;;;;;;16.05;7.68;;;;;;;;;;5018620;28;92144;-73
2022/03/18 09:06:05;;;;;;;15.48;7.10;;;;;;;;;;5018616;28;93745;-73
2022/03/18 09:08:31;;;;;;;12.43;7.75;;;;;;;;;;5017785;28;92311;-72
2022/03/18 09:10:57;;;;;;;21.55;8.13;;;;;;;;;;5019311;28;91961;-73
2022/03/18 09:13:24;;;;;;;16.23;7.47;;;;;;;;;;5021360;28;92625;-72
2022/03/18 09:15:50;;;;;;;16.40;8.23;;;;;;;;;;5016884;28;92385;-72
2022/03/18 09:18:18;;;;;;;19.58;8.35;;;;;;;;;;5016798;28;94670;-72
2022/03/18 09:20:44;;;;;;;16.13;7.95;;;;;;;;;;5017789;28;93280;-72
2022/03/18 09:23:10;;;;;;;12.38;7.55;;;;;;;;;;5018288;28;92468;-72
2022/03/18 09:25:37;;;;;;;15.30;7.25;;;;;;;;;;5018160;28;93423;-73
2022/03/18 09:28:03;;;;;;;16.85;7.75;;;;;;;;;;5018092;28;92829;-72
2022/03/18 09:30:49;;;;;;;15.40;7.72;;;;;;;;;;5018273;28;92320;-72
2022/03/18 09:33:17;;;;;;;21.85;7.78;;;;;;;;;;5017917;28;92473;-73
2022/03/18 09:35:43;;;;;;;21.98;8.75;;;;;;;;;;5021808;28;92384;-73
2022/03/18 09:38:10;;;;;;;15.60;8.05;;;;;;;;;;5017813;28;93578;-72
2022/03/18 09:40:37;;;;;;;17.17;8.00;;;;;;;;;;5017675;28;93744;-72
2022/03/18 09:43:23;;;;;;;17.85;9.10;;;;;;;;;;5020538;28;95648;-72
2022/03/18 09:45:49;;;;;;;16.25;8.88;;;;;;;;;;5035974;28;95841;-73
2022/03/18 09:48:36;;;;;;;20.70;8.68;;;;;;;;;;5037422;28;92658;-72
2022/03/18 09:51:02;;;;;;;15.05;7.78;;;;;;;;;;5037255;28;92279;-73
2022/03/18 09:53:29;;;;;;;28.42;8.60;;;;;;;;;;5033158;28;93203;-73
2022/03/18 09:55:55;;;;;;;12.95;7.57;;;;;;;;;;5037105;28;93547;-72
2022/03/18 09:58:22;;;;;;;27.70;7.50;;;;;;;;;;5038997;28;92767;-72
2022/03/18 10:00:51;;;;;;;21.77;6.82;;;;;;;;;;5037540;28;92984;-72
2022/03/18 10:03:21;;;;;;;20.40;7.97;;;;;;;;;;5033340;27;93912;-73
2022/03/18 10:06:00;;;;;;;15.80;7.40;;;;;;;;;;5037360;27;93361;-73
2022/03/18 10:08:47;;;;;;;16.85;8.05;;;;;;;;;;5035129;28;96022;-70
2022/03/18 10:11:14;;;;;;;17.13;8.60;;;;;;;;;;5030283;28;92842;-74
2022/03/18 10:13:51;;;;;;;13.02;8.52;;;;;;;;;;5025279;28;93480;-72
2022/03/18 10:16:30;;;;;;;32.30;10.15;;;;;;;;;;5030691;28;93271;-73
2022/03/18 10:18:56;;;;;;;17.73;8.73;;;;;;;;;;5036278;27;92323;-72
2022/03/18 10:21:23;;;;;;;20.23;9.25;;;;;;;;;;5039407;28;93547;-73
2022/03/18 10:23:50;;;;;;;23.67;9.18;;;;;;;;;;5032887;28;92378;-73
2022/03/18 10:26:16;;;;;;;23.23;8.27;;;;;;;;;;5036459;28;92847;-72
2022/03/18 10:28:46;;;;;;;15.70;8.13;;;;;;;;;;5036794;28;93123;-73
2022/03/18 10:31:13;;;;;;;21.73;7.60;;;;;;;;;;5029495;28;92227;-72
2022/03/18 10:39:23;;;;;;;45.08;19.75;;;;;;;;;;5031497;28;92433;-74
2022/03/18 10:41:51;;;;;;;13.75;7.57;;;;;;;;;;5035313;27;93132;-76
2022/03/18 10:44:17;;;;;;;16.42;7.47;;;;;;;;;;5039001;28;93254;-72
2022/03/18 10:46:44;;;;;;;12.93;7.05;;;;;;;;;;5036628;28;92573;-72
2022/03/18 10:49:10;;;;;;;14.00;6.65;;;;;;;;;;5034838;28;94204;-73
2022/03/18 10:51:37;;;;;;;15.05;7.15;;;;;;;;;;5036453;27;91622;-73
2022/03/18 10:54:04;;;;;;;21.30;7.32;;;;;;;;;;5035743;28;92566;-73
2022/03/18 10:56:50;;;;;;;19.85;7.72;;;;;;;;;;5036218;28;93010;-72
2022/03/18 10:59:17;;;;;;;13.18;6.55;;;;;;;;;;5028115;28;94562;-73
2022/03/18 11:01:45;;;;;;;12.13;6.40;;;;;;;;;;5036247;28;95148;-73
2022/03/18 11:04:15;;;;;;;18.65;6.50;;;;;;;;;;5031892;28;93163;-72
2022/03/18 11:06:43;;;;;;;16.67;7.03;;;;;;;;;;5035026;28;92144;-73
2022/03/18 11:11:06;;;;;;;14.50;7.30;;;;;;;;;;5035412;28;93496;-73
2022/03/18 11:12:20;;;;;;;14.13;7.03;;;;;;;;;;5024963;28;92210;-73
2022/03/18 11:14:48;;;;;;;19.00;7.78;;;;;;;;;;5036203;27;92505;-72
2022/03/18 11:17:15;;;;;;;17.98;7.10;;;;;;;;;;5036436;28;92818;-74
2022/03/18 11:19:44;;;;;;;15.63;6.82;;;;;;;;;;5027564;28;92317;-73
2022/03/18 11:22:10;;;;;;;13.18;7.22;;;;;;;;;;5032574;28;93432;-72
2022/03/18 11:24:37;;;;;;;18.38;7.70;;;;;;;;;;5029265;28;96221;-72
2022/03/18 11:27:04;;;;;;;13.35;6.88;;;;;;;;;;5038748;28;92591;-73
2022/03/18 11:29:31;;;;;;;11.02;6.95;;;;;;;;;;5035211;28;93629;-75
2022/03/18 11:32:10;;;;;;;17.05;7.35;;;;;;;;;;5035286;28;92433;-74
2022/03/18 11:34:52;;;;;;;18.27;7.03;;;;;;;;;;5035903;28;93169;-76
2022/03/18 11:37:18;;;;;;;;;;;;;;;;;;5029289;28;93369;-71
2022/03/18 11:39:46;;;;;;;13.90;6.63;;;;;;;;;;5031105;28;114002;-75
2022/03/18 11:42:16;;;;;;;10.93;6.38;;;;;;;;;;5035309;28;93829;-75
2022/03/18 11:44:44;;;;;;;12.80;6.20;;;;;;;;;;5034816;28;93564;-75
2022/03/18 11:47:23;;;;;;;14.80;6.90;;;;;;;;;;5035518;28;93095;-77
2022/03/18 11:50:24;;;;;;;11.50;7.00;;;;;;;;;;5033882;28;95202;-76
2022/03/18 11:52:57;;;;;;;12.45;7.63;;;;;;;;;;5027419;28;93306;-76
2022/03/18 11:55:24;;;;;;;9.30;7.15;;;;;;;;;;5028848;28;94219;-76
2022/03/18 11:57:50;;;;;;;12.13;5.90;;;;;;;;;;5023221;28;93840;-74
2022/03/18 12:00:43;;;;;;;9.70;5.88;;;;;;;;;;5034638;28;92497;-74
2022/03/18 12:03:18;;;;;;;12.82;5.97;;;;;;;;;;5029917;27;93784;-74
2022/03/18 12:05:57;;;;;;;11.27;5.78;;;;;;;;;;5038510;27;93666;-75
2022/03/18 12:08:49;;;;;;;11.32;5.80;;;;;;;;;;5033076;28;91682;-75
2022/03/18 12:11:23;;;;;;;10.07;5.28;;;;;;;;;;5035241;28;92751;-76
2022/03/18 12:13:53;;;;;;;7.78;5.43;;;;;;;;;;5038763;28;94000;-74
2022/03/18 12:16:31;;;;;;;9.32;5.20;;;;;;;;;;5036929;28;95264;-73
2022/03/18 12:18:58;;;;;;;12.93;5.30;;;;;;;;;;5029453;28;95116;-74
2022/03/18 12:21:52;;;;;;;11.32;4.70;;;;;;;;;;5038409;28;92342;-75
2022/03/18 12:24:26;;;;;;;9.60;5.03;;;;;;;;;;5029349;28;94217;-75
2022/03/18 12:26:52;;;;;;;12.15;5.88;;;;;;;;;;5038607;28;93974;-73
2022/03/18 12:29:24;;;;;;;14.93;6.60;;;;;;;;;;5038614;28;92320;-74
2022/03/18 12:32:00;;;;;;;14.77;6.38;;;;;;;;;;5037860;28;93482;-74
2022/03/18 12:34:27;;;;;;;15.13;5.78;;;;;;;;;;5034057;28;92625;-75
2022/03/18 12:36:53;;;;;;;11.50;6.05;;;;;;;;;;5039892;28;93330;-76
2022/03/18 12:39:20;;;;;;;8.70;5.90;;;;;;;;;;5038328;28;93540;-75
2022/03/18 12:41:46;;;;;;;7.45;5.00;;;;;;;;;;5036644;28;94732;-76
2022/03/18 12:44:30;;;;;;;9.68;6.22;;;;;;;;;;5033368;28;95731;-74
2022/03/18 12:46:57;;;;;;;19.63;6.55;;;;;;;;;;5037895;28;94992;-74
2022/03/18 12:49:44;;;;;;;11.60;6.32;;;;;;;;;;5037191;28;92275;-75
2022/03/18 12:52:11;;;;;;;16.58;6.30;;;;;;;;;;5038572;27;96244;-75
2022/03/18 12:54:38;;;;;;;15.35;6.22;;;;;;;;;;5037481;28;94500;-74
2022/03/18 12:57:13;;;;;;;14.10;5.95;;;;;;;;;;5037616;28;92456;-75
2022/03/18 12:59:40;;;;;;;15.43;5.32;;;;;;;;;;5042326;28;93541;-75
2022/03/18 13:02:26;;;;;;;11.13;5.85;;;;;;;;;;5038747;27;92196;-74
2022/03/18 13:04:57;;;;;;;13.70;5.55;;;;;;;;;;5038811;28;93330;-74
2022/03/18 13:07:24;;;;;;;15.25;6.03;;;;;;;;;;5036743;27;96755;-75
2022/03/18 13:09:59;;;;;;;13.13;5.70;;;;;;;;;;5037565;28;92350;-74
2022/03/18 13:12:26;;;;;;;8.90;5.68;;;;;;;;;;5037333;28;93237;-74
2022/03/18 13:14:56;;;;;;;10.30;5.65;;;;;;;;;;5038269;28;93436;-72
2022/03/18 13:17:23;;;;;;;7.00;5.05;;;;;;;;;;5038502;28;92358;-74
2022/03/18 13:19:51;;;;;;;8.60;5.70;;;;;;;;;;5041481;28;93535;-71
2022/03/18 13:22:18;;;;;;;8.02;5.38;;;;;;;;;;5038412;28;92279;-74
2022/03/18 13:24:45;;;;;;;9.10;5.63;;;;;;;;;;5039231;28;91694;-75
2022/03/18 13:27:11;;;;;;;12.63;5.20;;;;;;;;;;5038018;28;94178;-75
2022/03/18 13:35:10;;;;;;;11.05;5.55;;;;;;;;;;5038054;28;93755;-74
2022/03/18 13:37:39;;;;;;;24.58;5.07;;;;;;;;;;5037158;28;92346;-75
2022/03/18 13:40:09;;;;;;;11.25;5.25;;;;;;;;;;5037850;27;94611;-75
2022/03/18 13:42:35;;;;;;;14.50;4.95;;;;;;;;;;5031508;28;94105;-74
2022/03/18 13:45:26;;;;;;;10.43;4.38;;;;;;;;;;5033402;28;93780;-74
2022/03/18 13:47:52;;;;;;;6.97;4.35;;;;;;;;;;5035554;28;95207;-74
2022/03/18 13:50:19;;;;;;;8.88;4.35;;;;;;;;;;5037969;28;91512;-74
2022/03/18 13:52:58;;;;;;;10.68;5.78;;;;;;;;;;5037141;28;93005;-74
2022/03/18 13:55:40;;;;;;;14.52;4.80;;;;;;;;;;5011331;28;97157;-72
2022/03/18 13:58:07;;;;;;;13.20;4.75;;;;;;;;;;5031389;28;94551;-73
2022/03/18 14:00:37;;;;;;;13.05;4.97;;;;;;;;;;5036867;28;96840;-74
2022/03/18 14:03:05;;;;;;;7.88;4.80;;;;;;;;;;5029074;28;93059;-76
2022/03/18 14:05:32;;;;;;;7.97;4.20;;;;;;;;;;5039306;28;92481;-75
2022/03/18 14:08:00;;;;;;;7.45;4.78;;;;;;;;;;5033223;28;93788;-73
2022/03/18 14:10:35;;;;;;;7.85;4.57;;;;;;;;;;5037224;28;93379;-73
2022/03/18 14:13:03;;;;;;;11.40;5.35;;;;;;;;;;5036624;28;93568;-73
2022/03/18 14:15:33;;;;;;;8.50;5.15;;;;;;;;;;5036448;27;94429;-72
2022/03/18 14:18:04;;;;;;;10.25;4.80;;;;;;;;;;5036960;28;93164;-72
2022/03/18 14:20:35;;;;;;;7.40;4.90;;;;;;;;;;5032316;28;93485;-73
2022/03/18 14:23:20;;;;;;;8.93;4.57;;;;;;;;;;5034813;28;96365;-72
2022/03/18 14:25:47;;;;;;;6.88;4.22;;;;;;;;;;5031739;28;92341;-72
2022/03/18 14:28:27;;;;;;;6.68;4.63;;;;;;;;;;5039852;28;93222;-72
2022/03/18 14:30:56;;;;;;;5.97;4.60;;;;;;;;;;5036779;28;92418;-72
2022/03/18 14:33:23;;;;;;;10.20;4.72;;;;;;;;;;5036896;27;92928;-72
2022/03/18 14:35:50;;;;;;;9.85;4.95;;;;;;;;;;5034592;28;93588;-75
2022/03/18 14:38:17;;;;;;;6.00;5.07;;;;;;;;;;5036790;28;92484;-74
2022/03/18 14:40:44;;;;;;;7.28;4.80;;;;;;;;;;5037181;28;93283;-74
2022/03/18 14:43:11;;;;;;;11.13;5.05;;;;;;;;;;5035836;28;93698;-74
2022/03/18 14:45:39;;;;;;;10.38;4.72;;;;;;;;;;5034337;27;92384;-74
2022/03/18 14:48:06;;;;;;;7.28;4.40;;;;;;;;;;5034147;28;94879;-74
2022/03/18 14:50:38;;;;;;;10.45;5.38;;;;;;;;;;5038970;28;93440;-74
2022/03/18 14:53:06;;;;;;;6.78;4.28;;;;;;;;;;5036503;28;93354;-74
2022/03/18 14:58:17;;;;;;;11.75;5.13;;;;;;;;;;5032540;28;92419;-74
2022/03/18 15:00:45;;;;;;;8.45;4.30;;;;;;;;;;5036290;28;93446;-75
2022/03/18 15:03:12;;;;;;;7.55;4.15;;;;;;;;;;5036161;28;93435;-76
2022/03/18 15:05:38;;;;;;;9.82;4.45;;;;;;;;;;5033892;28;92105;-70
2022/03/18 15:08:05;;;;;;;8.70;5.07;;;;;;;;;;5031771;28;93034;-71
2022/03/18 15:10:32;;;;;;;6.18;4.72;;;;;;;;;;5036195;28;93076;-76
2022/03/18 15:13:04;;;;;;;9.90;4.90;;;;;;;;;;5033758;28;94725;-74